Terminal Aerodrome Forecast
Issued by NWS Bismarck, ND

Home | Current Version | Previous Version | Graphics & Text | Print | Product List | Glossary On
Versions: 1 2 3 4 5 6 7 8 9 10 11 12 13 14 15 16 17 18 19
000
FTUS43 KBIS 232300
TAFISN
TAF
KISN 232339Z 2400/2424 28006KT P6SM SCT050
     FM240300 21006KT P6SM SCT250
     FM240600 19006KT P6SM VCFG SCT070
     FM241400 19006KT P6SM BKN100=

USA.gov is the U.S. government's official web portal to all federal, state and local government web resources and services.